首页
METAR-TAF:

METAR-TAF

机场 :

Jerome County Airport

Jerome, 爱达荷州, 美国

纬度: 42-43-36N, 经度: 114-27-26W, 海拔: 1234米

当前天气观测

该预报发布于55分钟前的06:53 UTC
风速10节,风向西转西南
温度 11°C
湿度 47%
气压 1014 hPa
能見度: 16.1公里
天空无云

METAR: KJER 260653Z AUTO 24010KT 10SM CLR 11/00 A2993 RMK AO2 SLP113 T01110000 401940083

时间: 01:48 (07:48 UTC)

预报

该预报发布于2小时和28分钟前的05:20 UTC
预报有效从26日的 06点(UTC)到 27日的 06点(UTC)
风速8节,风向西转西南
能見度: 10公里
散云层高于9000英尺
从 26日的 1600点(UTC)
风速15节,风向西,有时为25节阵风
能見度: 10公里
天空无云

TAF: KJER 260520Z 2606/2706 25008KT P6SM SCT090 FM261600 27015G25KT P6SM SKC

超过4000个机场的气象观测和天气预报(METAR&TAF报告)。

可查询的气象台以黄色和红色小点在地图上表示。

将鼠标移到小点上方,可查看气象台名称。

然后点击查看天气观测和预报。

如需切换地图:点击带黑十字的绿色按钮放大地图;点击带横线的绿色按钮缩小地图;或者点击绿色箭头查看邻近地区的地图。


METAR-TAF: